Schokland — PBWZ — position and weather

sailwx.info

Track history (hours):
 
Tides and Currents Weather Stations Pressure Air Temp Water Temp Dewpoint Dewpoint Depression Visibility Wind Speed Wind Dir Waves Ship Positions

Schokland

Last reported at 2018-Jan-23 02:11 UTC. Time now 2018-Jan-23 04:18 UTC.
Position N 54°37' W 005°54'.

Length 89 m; draft 5.2 m.

Type: Ship. MMSI: 246655000.

Date/timePositionNaut miles runAvg speedWind from/ knotsBaromVisibWave heightAir tempDewpointWater temp
2018-Jan-23 02:11N 54°37' W 005°54'0 0.0
2018-Jan-23 01:50N 54°37' W 005°54'0 0.0
2018-Jan-23 00:35N 54°37' W 005°54'0 0.0
2018-Jan-23 00:26N 54°37' W 005°54'0 0.0
2018-Jan-22 21:45N 54°37' W 005°54'0 0.0
2018-Jan-22 21:24N 54°37' W 005°54'0 0.0
2018-Jan-22 19:08N 54°37' W 005°54'0 0.0
2018-Jan-22 18:59N 54°37' W 005°54'0 0.0
2018-Jan-22 17:50N 54°37' W 005°54'0 0.0
2018-Jan-22 17:29N 54°37' W 005°54'0 0.0
2018-Jan-22 16:55N 54°37' W 005°54'0 0.7
2018-Jan-22 16:28N 54°37' W 005°54'4 9.3
2018-Jan-22 16:00N 54°41' W 005°49'510.3
2018-Jan-22 15:30N 54°44' W 005°42'510.7
2018-Jan-22 15:00N 54°49' W 005°40'2012.0
2018-Jan-22 13:19N 55°09' W 005°47'413.2
2018-Jan-22 13:00N 55°13' W 005°49'714.0
2018-Jan-22 12:30N 55°19' W 005°52'713.4
2018-Jan-22 12:00N 55°26' W 005°54'612.6
2018-Jan-22 11:30N 55°32' W 005°56'612.3
2018-Jan-22 11:00N 55°38' W 005°58'4111.1
2018-Jan-22 07:18N 56°19' W 005°45'311.0
2018-Jan-22 07:01N 56°21' W 005°41'510.8
2018-Jan-22 06:31N 56°26' W 005°38'123 8.1
2018-Jan-21 15:21N 58°29' W 005°18'5510.8
2018-Jan-21 10:16N 58°42' W 003°35'310.2
2018-Jan-21 10:00N 58°42' W 003°30'510.2
2018-Jan-21 09:30N 58°43' W 003°20'5 8.7
2018-Jan-21 08:54N 58°43' W 003°10'3 8.4
2018-Jan-21 08:31N 58°42' W 003°04'611.2
2018-Jan-21 08:00N 58°38' W 002°56'612.2
2018-Jan-21 07:30N 58°34' W 002°48'43011.0
2018-Jan-19 16:21N 53°37' E 006°29'1013.5
2018-Jan-19 15:38N 53°32' E 006°43'215.1
2018-Jan-19 15:30N 53°31' E 006°46'715.0
2018-Jan-19 15:00N 53°26' E 006°55'714.5
2018-Jan-19 14:30N 53°20' E 007°00'2 4.8
2018-Jan-19 14:00N 53°20' E 006°56'0 0.0
2018-Jan-19 13:30N 53°20' E 006°56'0 0.0
2018-Jan-19 12:59N 53°20' E 006°56'0 0.0
2018-Jan-19 12:29N 53°20' E 006°56'0 0.0
2018-Jan-19 11:59N 53°20' E 006°56'0 0.0
2018-Jan-19 11:28N 53°20' E 006°56'0 0.0
2018-Jan-19 10:55N 53°20' E 006°56'0 0.0
2018-Jan-19 10:28N 53°20' E 006°56'0 0.0
2018-Jan-19 09:58N 53°20' E 006°56'0 0.0
2018-Jan-19 09:28N 53°20' E 006°56'0 0.0
2018-Jan-19 09:00N 53°20' E 006°56'0 0.0
2018-Jan-19 08:30N 53°20' E 006°56'0 0.0
2018-Jan-19 08:00N 53°20' E 006°56'0 0.0
2018-Jan-19 07:30N 53°20' E 006°56'0 0.0
2018-Jan-19 06:59N 53°20' E 006°56'0 0.0
2018-Jan-19 06:29N 53°20' E 006°56'0 0.0
2018-Jan-19 05:59N 53°20' E 006°56'0 0.0
2018-Jan-19 05:29N 53°20' E 006°56'0 0.0
2018-Jan-19 04:59N 53°20' E 006°56'0 0.0
2018-Jan-19 04:28N 53°20' E 006°56'0 0.0
2018-Jan-19 03:58N 53°20' E 006°56'0 0.0
2018-Jan-19 03:25N 53°20' E 006°56'0 0.0
2018-Jan-19 02:58N 53°20' E 006°56'0 0.0
2018-Jan-19 02:28N 53°20' E 006°56'0 0.0
2018-Jan-19 02:00N 53°20' E 006°56'0 0.0
2018-Jan-19 01:30N 53°20' E 006°56'0 0.0
2018-Jan-19 01:00N 53°20' E 006°56'0 0.0
2018-Jan-19 00:30N 53°20' E 006°56'0 0.0
2018-Jan-18 23:59N 53°20' E 006°56'0 0.0
2018-Jan-18 23:29N 53°20' E 006°56'0 0.0
2018-Jan-18 22:59N 53°20' E 006°56'0 0.0
2018-Jan-18 22:29N 53°20' E 006°56'0 0.0
2018-Jan-18 21:59N 53°20' E 006°56'0 0.0
2018-Jan-18 21:28N 53°20' E 006°56'0 0.0
2018-Jan-18 20:58N 53°20' E 006°56'0 0.0
2018-Jan-18 20:25N 53°20' E 006°56'0 0.0
2018-Jan-18 19:58N 53°20' E 006°56'0 0.0
2018-Jan-18 19:31N 53°20' E 006°56'0 0.0
2018-Jan-18 19:00N 53°20' E 006°56'0 0.0
2018-Jan-18 18:30N 53°20' E 006°56'0 0.0
2018-Jan-18 18:00N 53°20' E 006°56'0 0.0
2018-Jan-18 17:30N 53°20' E 006°56'0 0.0
2018-Jan-18 16:59N 53°20' E 006°56'0 0.0
2018-Jan-18 16:29N 53°20' E 006°56'0 0.0
2018-Jan-18 15:59N 53°20' E 006°56'0 0.0
2018-Jan-18 15:29N 53°20' E 006°56'0 0.0
2018-Jan-18 14:56N 53°20' E 006°56'0 0.0
2018-Jan-18 14:25N 53°20' E 006°56'0 0.0
2018-Jan-18 13:58N 53°20' E 006°56'0 0.0
2018-Jan-18 13:25N 53°20' E 006°56'0 0.0
2018-Jan-18 12:58N 53°20' E 006°56'0 0.0
2018-Jan-18 12:30N 53°20' E 006°56'0 0.0
2018-Jan-18 12:00N 53°20' E 006°56'0 0.0
2018-Jan-18 11:27N 53°20' E 006°56'0 0.0
2018-Jan-18 11:00N 53°20' E 006°56'0 0.0
2018-Jan-18 10:30N 53°20' E 006°56'0 0.0
2018-Jan-18 09:59N 53°20' E 006°56'0 0.0
2018-Jan-18 09:29N 53°20' E 006°56'0 0.0
2018-Jan-18 08:59N 53°20' E 006°56'0 0.0
2018-Jan-18 08:29N 53°20' E 006°56'0 0.0
2018-Jan-18 07:59N 53°20' E 006°56'0 0.0
2018-Jan-18 07:28N 53°20' E 006°56'0 0.0
2018-Jan-18 06:58N 53°20' E 006°56'0 0.0
2018-Jan-18 06:28N 53°20' E 006°56'0 0.0
2018-Jan-18 05:55N 53°20' E 006°56'0 0.0
2018-Jan-18 05:27N 53°20' E 006°56'0 0.0
2018-Jan-18 04:57N 53°20' E 006°56'0 0.0
2018-Jan-18 04:30N 53°20' E 006°56'0 0.0
2018-Jan-18 04:00N 53°20' E 006°56'0 0.0
2018-Jan-18 03:30N 53°20' E 006°56'0 0.0
2018-Jan-18 02:59N 53°20' E 006°56'0 0.0
2018-Jan-18 02:29N 53°20' E 006°56'0 0.0
2018-Jan-18 01:59N 53°20' E 006°56'0 0.0
2018-Jan-18 01:29N 53°20' E 006°56'0 0.0
2018-Jan-18 00:55N 53°20' E 006°56'0 0.0
2018-Jan-17 23:58N 53°20' E 006°56'0 0.0
2018-Jan-17 23:55N 53°20' E 006°56'  
Track history (hours):
 
Tides and Currents Weather Stations Pressure Air Temp Water Temp Dewpoint Dewpoint Depression Visibility Wind Speed Wind Dir Waves Ship Positions

Schokland

Last reported at 2018-Jan-23 02:11 UTC. Time now 2018-Jan-23 04:18 UTC.
Position N 54°37' W 005°54'.

Length 89 m; draft 5.2 m.

Type: Ship. MMSI: 246655000.

Date/timePositionNaut miles runAvg speedWind from/ knotsBaromVisibWave heightAir tempDewpointWater temp
2018-Jan-23 02:11N 54°37' W 005°54'0 0.0
2018-Jan-23 01:50N 54°37' W 005°54'0 0.0
2018-Jan-23 00:35N 54°37' W 005°54'0 0.0
2018-Jan-23 00:26N 54°37' W 005°54'0 0.0
2018-Jan-22 21:45N 54°37' W 005°54'0 0.0
2018-Jan-22 21:24N 54°37' W 005°54'0 0.0
2018-Jan-22 19:08N 54°37' W 005°54'0 0.0
2018-Jan-22 18:59N 54°37' W 005°54'0 0.0
2018-Jan-22 17:50N 54°37' W 005°54'0 0.0
2018-Jan-22 17:29N 54°37' W 005°54'0 0.0
2018-Jan-22 16:55N 54°37' W 005°54'0 0.7
2018-Jan-22 16:28N 54°37' W 005°54'4 9.3
2018-Jan-22 16:00N 54°41' W 005°49'510.3
2018-Jan-22 15:30N 54°44' W 005°42'510.7
2018-Jan-22 15:00N 54°49' W 005°40'2012.0
2018-Jan-22 13:19N 55°09' W 005°47'413.2
2018-Jan-22 13:00N 55°13' W 005°49'714.0
2018-Jan-22 12:30N 55°19' W 005°52'713.4
2018-Jan-22 12:00N 55°26' W 005°54'612.6
2018-Jan-22 11:30N 55°32' W 005°56'612.3
2018-Jan-22 11:00N 55°38' W 005°58'4111.1
2018-Jan-22 07:18N 56°19' W 005°45'311.0
2018-Jan-22 07:01N 56°21' W 005°41'510.8
2018-Jan-22 06:31N 56°26' W 005°38'123 8.1
2018-Jan-21 15:21N 58°29' W 005°18'5510.8
2018-Jan-21 10:16N 58°42' W 003°35'310.2
2018-Jan-21 10:00N 58°42' W 003°30'510.2
2018-Jan-21 09:30N 58°43' W 003°20'5 8.7
2018-Jan-21 08:54N 58°43' W 003°10'3 8.4
2018-Jan-21 08:31N 58°42' W 003°04'611.2
2018-Jan-21 08:00N 58°38' W 002°56'612.2
2018-Jan-21 07:30N 58°34' W 002°48'43011.0
2018-Jan-19 16:21N 53°37' E 006°29'1013.5
2018-Jan-19 15:38N 53°32' E 006°43'215.1
2018-Jan-19 15:30N 53°31' E 006°46'715.0
2018-Jan-19 15:00N 53°26' E 006°55'714.5
2018-Jan-19 14:30N 53°20' E 007°00'2 4.8
2018-Jan-19 14:00N 53°20' E 006°56'0 0.0
2018-Jan-19 13:30N 53°20' E 006°56'0 0.0
2018-Jan-19 12:59N 53°20' E 006°56'0 0.0
2018-Jan-19 12:29N 53°20' E 006°56'0 0.0
2018-Jan-19 11:59N 53°20' E 006°56'0 0.0
2018-Jan-19 11:28N 53°20' E 006°56'0 0.0
2018-Jan-19 10:55N 53°20' E 006°56'0 0.0
2018-Jan-19 10:28N 53°20' E 006°56'0 0.0
2018-Jan-19 09:58N 53°20' E 006°56'0 0.0
2018-Jan-19 09:28N 53°20' E 006°56'0 0.0
2018-Jan-19 09:00N 53°20' E 006°56'0 0.0
2018-Jan-19 08:30N 53°20' E 006°56'0 0.0
2018-Jan-19 08:00N 53°20' E 006°56'0 0.0
2018-Jan-19 07:30N 53°20' E 006°56'0 0.0
2018-Jan-19 06:59N 53°20' E 006°56'0 0.0
2018-Jan-19 06:29N 53°20' E 006°56'0 0.0
2018-Jan-19 05:59N 53°20' E 006°56'0 0.0
2018-Jan-19 05:29N 53°20' E 006°56'0 0.0
2018-Jan-19 04:59N 53°20' E 006°56'0 0.0
2018-Jan-19 04:28N 53°20' E 006°56'0 0.0
2018-Jan-19 03:58N 53°20' E 006°56'0 0.0
2018-Jan-19 03:25N 53°20' E 006°56'0 0.0
2018-Jan-19 02:58N 53°20' E 006°56'0 0.0
2018-Jan-19 02:28N 53°20' E 006°56'0 0.0
2018-Jan-19 02:00N 53°20' E 006°56'0 0.0
2018-Jan-19 01:30N 53°20' E 006°56'0 0.0
2018-Jan-19 01:00N 53°20' E 006°56'0 0.0
2018-Jan-19 00:30N 53°20' E 006°56'0 0.0
2018-Jan-18 23:59N 53°20' E 006°56'0 0.0
2018-Jan-18 23:29N 53°20' E 006°56'0 0.0
2018-Jan-18 22:59N 53°20' E 006°56'0 0.0
2018-Jan-18 22:29N 53°20' E 006°56'0 0.0
2018-Jan-18 21:59N 53°20' E 006°56'0 0.0
2018-Jan-18 21:28N 53°20' E 006°56'0 0.0
2018-Jan-18 20:58N 53°20' E 006°56'0 0.0
2018-Jan-18 20:25N 53°20' E 006°56'0 0.0
2018-Jan-18 19:58N 53°20' E 006°56'0 0.0
2018-Jan-18 19:31N 53°20' E 006°56'0 0.0
2018-Jan-18 19:00N 53°20' E 006°56'0 0.0
2018-Jan-18 18:30N 53°20' E 006°56'0 0.0
2018-Jan-18 18:00N 53°20' E 006°56'0 0.0
2018-Jan-18 17:30N 53°20' E 006°56'0 0.0
2018-Jan-18 16:59N 53°20' E 006°56'0 0.0
2018-Jan-18 16:29N 53°20' E 006°56'0 0.0
2018-Jan-18 15:59N 53°20' E 006°56'0 0.0
2018-Jan-18 15:29N 53°20' E 006°56'0 0.0
2018-Jan-18 14:56N 53°20' E 006°56'0 0.0
2018-Jan-18 14:25N 53°20' E 006°56'0 0.0
2018-Jan-18 13:58N 53°20' E 006°56'0 0.0
2018-Jan-18 13:25N 53°20' E 006°56'0 0.0
2018-Jan-18 12:58N 53°20' E 006°56'0 0.0
2018-Jan-18 12:30N 53°20' E 006°56'0 0.0
2018-Jan-18 12:00N 53°20' E 006°56'0 0.0
2018-Jan-18 11:27N 53°20' E 006°56'0 0.0
2018-Jan-18 11:00N 53°20' E 006°56'0 0.0
2018-Jan-18 10:30N 53°20' E 006°56'0 0.0
2018-Jan-18 09:59N 53°20' E 006°56'0 0.0
2018-Jan-18 09:29N 53°20' E 006°56'0 0.0
2018-Jan-18 08:59N 53°20' E 006°56'0 0.0
2018-Jan-18 08:29N 53°20' E 006°56'0 0.0
2018-Jan-18 07:59N 53°20' E 006°56'0 0.0
2018-Jan-18 07:28N 53°20' E 006°56'0 0.0
2018-Jan-18 06:58N 53°20' E 006°56'0 0.0
2018-Jan-18 06:28N 53°20' E 006°56'0 0.0
2018-Jan-18 05:55N 53°20' E 006°56'0 0.0
2018-Jan-18 05:27N 53°20' E 006°56'0 0.0
2018-Jan-18 04:57N 53°20' E 006°56'0 0.0
2018-Jan-18 04:30N 53°20' E 006°56'0 0.0
2018-Jan-18 04:00N 53°20' E 006°56'0 0.0
2018-Jan-18 03:30N 53°20' E 006°56'0 0.0
2018-Jan-18 02:59N 53°20' E 006°56'0 0.0
2018-Jan-18 02:29N 53°20' E 006°56'0 0.0
2018-Jan-18 01:59N 53°20' E 006°56'0 0.0
2018-Jan-18 01:29N 53°20' E 006°56'0 0.0
2018-Jan-18 00:55N 53°20' E 006°56'0 0.0
2018-Jan-17 23:58N 53°20' E 006°56'0 0.0
2018-Jan-17 23:55N 53°20' E 006°56'  

Dump ship's entire track history